Indigo — 6YTG6 — position and weather

sailwx.info

Track history (hours):
 
Tides and Currents Weather Stations Pressure Air Temp Water Temp Dewpoint Dewpoint Depression Visibility Wind Speed Wind Dir Waves Ship Positions

Indigo

Last reported at 2018-Jun-11 02:33 UTC. Time now 2018-Jun-23 15:51 UTC.
Position N 09°11' W 079°52'.
Warning: this ship's position is 12 days out of date.

Length 27 m; draft 2.8 m.

Type: Ship. MMSI: 339632000.

Date/timePositionNaut miles runAvg speedWind from/ knotsBaromVisibWave heightAir tempDewpointWater temp
2018-Jun-11 02:33N 09°11' W 079°52'0 8.9
2018-Jun-11 02:30N 09°11' W 079°52'4 8.6
2018-Jun-11 02:00N 09°14' W 079°55'3 5.2
2018-Jun-11 01:30N 09°16' W 079°55'0 0.4
2018-Jun-11 01:00N 09°17' W 079°55'0 0.3
2018-Jun-11 00:30N 09°17' W 079°55'0 0.0
2018-Jun-11 00:00N 09°17' W 079°55'0 0.9
2018-Jun-10 23:30N 09°17' W 079°55'3 6.5
2018-Jun-10 23:00N 09°20' W 079°55'1 1.8
2018-Jun-10 22:30N 09°21' W 079°55'0 0.0
2018-Jun-10 22:00N 09°21' W 079°55'0 0.0
2018-Jun-10 21:30N 09°21' W 079°55'0 0.0
2018-Jun-10 21:00N 09°21' W 079°55'0 0.0
2018-Jun-10 20:30N 09°21' W 079°55'0 0.0
2018-Jun-10 20:00N 09°21' W 079°55'0 0.0
2018-Jun-10 19:30N 09°21' W 079°55'0 0.0
2018-Jun-10 19:00N 09°21' W 079°55'0 0.0
2018-Jun-10 18:30N 09°21' W 079°55'0 0.0
2018-Jun-10 18:00N 09°21' W 079°55'0 0.0
2018-Jun-10 17:30N 09°21' W 079°55'1 1.6
2018-Jun-10 16:58N 09°21' W 079°55'0 0.0
2018-Jun-10 16:28N 09°21' W 079°55'0 0.0
2018-Jun-10 15:58N 09°21' W 079°55'0 0.0
2018-Jun-10 15:28N 09°21' W 079°55'0 0.0
2018-Jun-10 14:58N 09°21' W 079°55'0 0.0
2018-Jun-10 14:28N 09°21' W 079°55'0 0.0
2018-Jun-10 13:28N 09°21' W 079°55'0 0.0
2018-Jun-10 12:58N 09°21' W 079°55'0 0.0
2018-Jun-10 12:28N 09°21' W 079°55'0 0.0
2018-Jun-10 11:58N 09°21' W 079°55'0 0.0
2018-Jun-10 11:28N 09°21' W 079°55'0 0.0
2018-Jun-10 10:58N 09°21' W 079°55'0 0.0
2018-Jun-10 10:28N 09°21' W 079°55'0 0.0
2018-Jun-10 09:58N 09°21' W 079°55'0 0.0
2018-Jun-10 09:28N 09°21' W 079°55'0 0.0
2018-Jun-10 08:58N 09°21' W 079°55'0 0.0
2018-Jun-10 08:28N 09°21' W 079°55'0 0.0
2018-Jun-10 07:58N 09°21' W 079°55'0 0.0
2018-Jun-10 07:28N 09°21' W 079°55'0 0.0
2018-Jun-10 06:58N 09°21' W 079°55'0 0.0
2018-Jun-10 06:28N 09°21' W 079°55'0 0.0
2018-Jun-10 05:58N 09°21' W 079°55'0 0.0
2018-Jun-10 05:28N 09°21' W 079°55'0 0.0
2018-Jun-10 04:58N 09°21' W 079°55'0 0.0
2018-Jun-10 04:28N 09°21' W 079°55'0 0.0
2018-Jun-10 03:58N 09°21' W 079°55'0 0.0
2018-Jun-10 03:28N 09°21' W 079°55'0 0.0
2018-Jun-10 02:58N 09°21' W 079°55'0 0.0
2018-Jun-09 01:04N 09°21' W 079°55'0 0.0
2018-Jun-09 00:58N 09°21' W 079°55'0 0.0
2018-Jun-09 00:28N 09°21' W 079°55'0 0.0
2018-Jun-08 23:58N 09°21' W 079°55'0 0.0
2018-Jun-08 23:28N 09°21' W 079°55'0 0.0
2018-Jun-08 22:58N 09°21' W 079°55'0 0.0
2018-Jun-08 22:28N 09°21' W 079°55'0 0.3
2018-Jun-08 21:58N 09°21' W 079°55'0 0.1
2018-Jun-08 21:28N 09°21' W 079°55'0 0.1
2018-Jun-08 20:52N 09°21' W 079°55'0 0.0
2018-Jun-08 20:28N 09°21' W 079°55'0 0.0
2018-Jun-08 19:58N 09°21' W 079°55'0 0.0
2018-Jun-08 19:28N 09°21' W 079°55'0 0.0
2018-Jun-08 18:55N 09°21' W 079°55'0 0.0
2018-Jun-08 18:28N 09°21' W 079°55'0 0.0
2018-Jun-08 17:58N 09°21' W 079°55'0 0.0
2018-Jun-08 17:28N 09°21' W 079°55'0 0.0
2018-Jun-08 16:58N 09°21' W 079°55'0 0.0
2018-Jun-08 16:28N 09°21' W 079°55'0 0.0
2018-Jun-08 15:58N 09°21' W 079°55'0 0.0
2018-Jun-08 15:28N 09°21' W 079°55'0 0.0
2018-Jun-08 14:58N 09°21' W 079°55'0 0.0
2018-Jun-08 14:28N 09°21' W 079°55'0 0.0
2018-Jun-08 13:58N 09°21' W 079°55'0 0.0
2018-Jun-08 13:28N 09°21' W 079°55'0 0.0
2018-Jun-08 12:58N 09°21' W 079°55'0 0.0
2018-Jun-08 12:28N 09°21' W 079°55'0 0.0
2018-Jun-08 11:58N 09°21' W 079°55'0 0.0
2018-Jun-08 11:28N 09°21' W 079°55'0 0.0
2018-Jun-08 10:58N 09°21' W 079°55'0 0.0
2018-Jun-08 10:28N 09°21' W 079°55'0 0.0
2018-Jun-08 09:58N 09°21' W 079°55'0 0.0
2018-Jun-08 09:28N 09°21' W 079°55'0 0.0
2018-Jun-08 08:58N 09°21' W 079°55'0 0.0
2018-Jun-08 08:28N 09°21' W 079°55'0 0.0
2018-Jun-08 07:58N 09°21' W 079°55'0 0.0
2018-Jun-08 07:28N 09°21' W 079°55'0 0.1
2018-Jun-08 06:58N 09°21' W 079°55'0 0.0
2018-Jun-08 06:28N 09°21' W 079°55'0 0.0
2018-Jun-08 05:58N 09°21' W 079°55'0 0.0
2018-Jun-08 05:28N 09°21' W 079°55'0 0.0
2018-Jun-08 04:58N 09°21' W 079°55'0 0.0
2018-Jun-08 04:28N 09°21' W 079°55'0 0.0
2018-Jun-08 03:58N 09°21' W 079°55'0 0.0
2018-Jun-08 03:28N 09°21' W 079°55'0 0.0
2018-Jun-08 02:58N 09°21' W 079°55'0 0.0
2018-Jun-08 02:28N 09°21' W 079°55'0 0.0
2018-Jun-08 01:58N 09°21' W 079°55'0 0.0
2018-Jun-08 01:28N 09°21' W 079°55'0 0.0
2018-Jun-08 00:58N 09°21' W 079°55'0 0.0
2018-Jun-08 00:28N 09°21' W 079°55'0 0.0
2018-Jun-07 23:58N 09°21' W 079°55'0 0.0
2018-Jun-07 23:28N 09°21' W 079°55'0 0.0
2018-Jun-07 22:58N 09°21' W 079°55'0 0.0
2018-Jun-07 22:28N 09°21' W 079°55'0 0.0
2018-Jun-07 21:58N 09°21' W 079°55'0 0.0
2018-Jun-07 21:30N 09°21' W 079°55'0 0.1
2018-Jun-07 21:00N 09°21' W 079°55'3 5.7
2018-Jun-07 20:30N 09°23' W 079°55'4 8.8
2018-Jun-07 20:00N 09°28' W 079°54'  
2018-Jun-02 22:50N 18°01' W 063°33'310.1
2018-Jun-02 22:30N 18°02' W 063°29'510.2
2018-Jun-02 21:59N 18°02' W 063°24'510.1
2018-Jun-02 21:29N 18°02' W 063°19'5 9.8
2018-Jun-02 20:59N 18°02' W 063°13'5 9.6
2018-Jun-02 20:29N 18°01' W 063°08'3 4.8
2018-Jun-02 19:52N 18°02' W 063°05'0 0.2
2018-Jun-02 19:22N 18°02' W 063°05'0 0.0
2018-Jun-02 18:52N 18°02' W 063°05'0 0.0
2018-Jun-02 18:23N 18°02' W 063°05'0 0.0
2018-Jun-02 17:53N 18°02' W 063°05'0 0.0
2018-Jun-02 17:23N 18°02' W 063°05'0 0.0
2018-Jun-02 16:53N 18°02' W 063°05'0 0.0
2018-Jun-02 16:20N 18°02' W 063°05'0 0.0
2018-Jun-02 15:56N 18°02' W 063°05'0 0.0
2018-Jun-02 15:26N 18°02' W 063°05'0 0.0
2018-Jun-02 14:56N 18°02' W 063°05'0 0.0
2018-Jun-02 14:26N 18°02' W 063°05'0 0.0
2018-Jun-02 13:56N 18°02' W 063°05'0 0.0
2018-Jun-02 13:14N 18°02' W 063°05'0 0.0
2018-Jun-02 12:59N 18°02' W 063°05'0 0.0
2018-Jun-02 12:29N 18°02' W 063°05'0 0.0
2018-Jun-02 11:44N 18°02' W 063°05'0 0.0
2018-Jun-02 11:26N 18°02' W 063°05'0 0.0
2018-Jun-02 10:59N 18°02' W 063°05'0 0.0
2018-Jun-02 10:29N 18°02' W 063°05'0 0.0
2018-Jun-02 09:59N 18°02' W 063°05'0 0.0
2018-Jun-02 09:29N 18°02' W 063°05'0 0.0
2018-Jun-02 08:59N 18°02' W 063°05'0 0.0
2018-Jun-02 08:29N 18°02' W 063°05'0 0.0
2018-Jun-02 07:59N 18°02' W 063°05'0 0.0
2018-Jun-02 07:29N 18°02' W 063°05'0 0.0
2018-Jun-02 06:59N 18°02' W 063°05'0 0.0
2018-Jun-02 06:20N 18°02' W 063°05'0 0.0
2018-Jun-02 05:50N 18°02' W 063°05'0 0.0
2018-Jun-02 05:20N 18°02' W 063°05'0 0.0
2018-Jun-02 04:53N 18°02' W 063°05'0 0.0
2018-Jun-02 04:23N 18°02' W 063°05'0 0.0
2018-Jun-02 03:53N 18°02' W 063°05'0 0.0
2018-Jun-02 03:23N 18°02' W 063°05'0 0.0
2018-Jun-02 02:53N 18°02' W 063°05'0 0.0
2018-Jun-02 02:23N 18°02' W 063°05'0 0.0
2018-Jun-02 01:53N 18°02' W 063°05'0 0.0
2018-Jun-02 01:26N 18°02' W 063°05'0 0.0
2018-Jun-02 00:53N 18°02' W 063°05'0 0.0
2018-Jun-02 00:08N 18°02' W 063°05'0 0.0
2018-Jun-01 23:53N 18°02' W 063°05'0 0.0
2018-Jun-01 23:29N 18°02' W 063°05'0 0.0
2018-Jun-01 22:59N 18°02' W 063°05'0 0.0
2018-Jun-01 22:29N 18°02' W 063°05'0 0.0
2018-Jun-01 21:56N 18°02' W 063°05'0 0.0
2018-Jun-01 21:29N 18°02' W 063°05'0 0.0
2018-Jun-01 20:59N 18°02' W 063°05'0 0.0
2018-Jun-01 20:29N 18°02' W 063°05'0 0.0
2018-Jun-01 19:47N 18°02' W 063°05'0 0.0
2018-Jun-01 19:29N 18°02' W 063°05'0 0.0
2018-Jun-01 18:59N 18°02' W 063°05'0 0.0
2018-Jun-01 18:29N 18°02' W 063°05'0 0.0
2018-Jun-01 17:59N 18°02' W 063°05'0 0.0
2018-Jun-01 17:29N 18°02' W 063°05'0 0.0
2018-Jun-01 16:50N 18°02' W 063°05'0 0.0
2018-Jun-01 16:20N 18°02' W 063°05'0 0.0
2018-Jun-01 15:47N 18°02' W 063°05'0 0.0
2018-Jun-01 15:23N 18°02' W 063°05'0 0.0
2018-Jun-01 14:53N 18°02' W 063°05'0 0.0
2018-Jun-01 14:23N 18°02' W 063°05'0 0.0
2018-Jun-01 13:53N 18°02' W 063°05'0 0.0
2018-Jun-01 13:11N 18°02' W 063°05'0 0.0
2018-Jun-01 12:50N 18°02' W 063°05'0 0.0
2018-Jun-01 12:26N 18°02' W 063°05'0 0.0
2018-Jun-01 11:53N 18°02' W 063°05'0 0.0
2018-Jun-01 11:26N 18°02' W 063°05'0 0.0
2018-Jun-01 10:53N 18°02' W 063°05'0 0.0
2018-Jun-01 10:26N 18°02' W 063°05'0 0.0
2018-Jun-01 09:59N 18°02' W 063°05'0 0.0
2018-Jun-01 09:29N 18°02' W 063°05'0 0.0
2018-Jun-01 08:59N 18°02' W 063°05'0 0.0
2018-Jun-01 08:29N 18°02' W 063°05'0 0.0
2018-Jun-01 07:59N 18°02' W 063°05'0 0.0
2018-Jun-01 07:29N 18°02' W 063°05'0 0.0
2018-Jun-01 06:59N 18°02' W 063°05'0 0.0
2018-Jun-01 06:29N 18°02' W 063°05'0 0.0
2018-Jun-01 05:59N 18°02' W 063°05'0 0.0
2018-Jun-01 05:29N 18°02' W 063°05'0 0.0
2018-Jun-01 04:59N 18°02' W 063°05'0 0.0
2018-Jun-01 04:29N 18°02' W 063°05'0 0.0
2018-Jun-01 03:59N 18°02' W 063°05'0 0.0
2018-Jun-01 03:20N 18°02' W 063°05'0 0.0
2018-Jun-01 02:59N 18°02' W 063°05'  
Track history (hours):
 
Tides and Currents Weather Stations Pressure Air Temp Water Temp Dewpoint Dewpoint Depression Visibility Wind Speed Wind Dir Waves Ship Positions

Indigo

Last reported at 2018-Jun-11 02:33 UTC. Time now 2018-Jun-23 15:51 UTC.
Position N 09°11' W 079°52'.
Warning: this ship's position is 12 days out of date.

Length 27 m; draft 2.8 m.

Type: Ship. MMSI: 339632000.

Date/timePositionNaut miles runAvg speedWind from/ knotsBaromVisibWave heightAir tempDewpointWater temp
2018-Jun-11 02:33N 09°11' W 079°52'0 8.9
2018-Jun-11 02:30N 09°11' W 079°52'4 8.6
2018-Jun-11 02:00N 09°14' W 079°55'3 5.2
2018-Jun-11 01:30N 09°16' W 079°55'0 0.4
2018-Jun-11 01:00N 09°17' W 079°55'0 0.3
2018-Jun-11 00:30N 09°17' W 079°55'0 0.0
2018-Jun-11 00:00N 09°17' W 079°55'0 0.9
2018-Jun-10 23:30N 09°17' W 079°55'3 6.5
2018-Jun-10 23:00N 09°20' W 079°55'1 1.8
2018-Jun-10 22:30N 09°21' W 079°55'0 0.0
2018-Jun-10 22:00N 09°21' W 079°55'0 0.0
2018-Jun-10 21:30N 09°21' W 079°55'0 0.0
2018-Jun-10 21:00N 09°21' W 079°55'0 0.0
2018-Jun-10 20:30N 09°21' W 079°55'0 0.0
2018-Jun-10 20:00N 09°21' W 079°55'0 0.0
2018-Jun-10 19:30N 09°21' W 079°55'0 0.0
2018-Jun-10 19:00N 09°21' W 079°55'0 0.0
2018-Jun-10 18:30N 09°21' W 079°55'0 0.0
2018-Jun-10 18:00N 09°21' W 079°55'0 0.0
2018-Jun-10 17:30N 09°21' W 079°55'1 1.6
2018-Jun-10 16:58N 09°21' W 079°55'0 0.0
2018-Jun-10 16:28N 09°21' W 079°55'0 0.0
2018-Jun-10 15:58N 09°21' W 079°55'0 0.0
2018-Jun-10 15:28N 09°21' W 079°55'0 0.0
2018-Jun-10 14:58N 09°21' W 079°55'0 0.0
2018-Jun-10 14:28N 09°21' W 079°55'0 0.0
2018-Jun-10 13:28N 09°21' W 079°55'0 0.0
2018-Jun-10 12:58N 09°21' W 079°55'0 0.0
2018-Jun-10 12:28N 09°21' W 079°55'0 0.0
2018-Jun-10 11:58N 09°21' W 079°55'0 0.0
2018-Jun-10 11:28N 09°21' W 079°55'0 0.0
2018-Jun-10 10:58N 09°21' W 079°55'0 0.0
2018-Jun-10 10:28N 09°21' W 079°55'0 0.0
2018-Jun-10 09:58N 09°21' W 079°55'0 0.0
2018-Jun-10 09:28N 09°21' W 079°55'0 0.0
2018-Jun-10 08:58N 09°21' W 079°55'0 0.0
2018-Jun-10 08:28N 09°21' W 079°55'0 0.0
2018-Jun-10 07:58N 09°21' W 079°55'0 0.0
2018-Jun-10 07:28N 09°21' W 079°55'0 0.0
2018-Jun-10 06:58N 09°21' W 079°55'0 0.0
2018-Jun-10 06:28N 09°21' W 079°55'0 0.0
2018-Jun-10 05:58N 09°21' W 079°55'0 0.0
2018-Jun-10 05:28N 09°21' W 079°55'0 0.0
2018-Jun-10 04:58N 09°21' W 079°55'0 0.0
2018-Jun-10 04:28N 09°21' W 079°55'0 0.0
2018-Jun-10 03:58N 09°21' W 079°55'0 0.0
2018-Jun-10 03:28N 09°21' W 079°55'0 0.0
2018-Jun-10 02:58N 09°21' W 079°55'0 0.0
2018-Jun-09 01:04N 09°21' W 079°55'0 0.0
2018-Jun-09 00:58N 09°21' W 079°55'0 0.0
2018-Jun-09 00:28N 09°21' W 079°55'0 0.0
2018-Jun-08 23:58N 09°21' W 079°55'0 0.0
2018-Jun-08 23:28N 09°21' W 079°55'0 0.0
2018-Jun-08 22:58N 09°21' W 079°55'0 0.0
2018-Jun-08 22:28N 09°21' W 079°55'0 0.3
2018-Jun-08 21:58N 09°21' W 079°55'0 0.1
2018-Jun-08 21:28N 09°21' W 079°55'0 0.1
2018-Jun-08 20:52N 09°21' W 079°55'0 0.0
2018-Jun-08 20:28N 09°21' W 079°55'0 0.0
2018-Jun-08 19:58N 09°21' W 079°55'0 0.0
2018-Jun-08 19:28N 09°21' W 079°55'0 0.0
2018-Jun-08 18:55N 09°21' W 079°55'0 0.0
2018-Jun-08 18:28N 09°21' W 079°55'0 0.0
2018-Jun-08 17:58N 09°21' W 079°55'0 0.0
2018-Jun-08 17:28N 09°21' W 079°55'0 0.0
2018-Jun-08 16:58N 09°21' W 079°55'0 0.0
2018-Jun-08 16:28N 09°21' W 079°55'0 0.0
2018-Jun-08 15:58N 09°21' W 079°55'0 0.0
2018-Jun-08 15:28N 09°21' W 079°55'0 0.0
2018-Jun-08 14:58N 09°21' W 079°55'0 0.0
2018-Jun-08 14:28N 09°21' W 079°55'0 0.0
2018-Jun-08 13:58N 09°21' W 079°55'0 0.0
2018-Jun-08 13:28N 09°21' W 079°55'0 0.0
2018-Jun-08 12:58N 09°21' W 079°55'0 0.0
2018-Jun-08 12:28N 09°21' W 079°55'0 0.0
2018-Jun-08 11:58N 09°21' W 079°55'0 0.0
2018-Jun-08 11:28N 09°21' W 079°55'0 0.0
2018-Jun-08 10:58N 09°21' W 079°55'0 0.0
2018-Jun-08 10:28N 09°21' W 079°55'0 0.0
2018-Jun-08 09:58N 09°21' W 079°55'0 0.0
2018-Jun-08 09:28N 09°21' W 079°55'0 0.0
2018-Jun-08 08:58N 09°21' W 079°55'0 0.0
2018-Jun-08 08:28N 09°21' W 079°55'0 0.0
2018-Jun-08 07:58N 09°21' W 079°55'0 0.0
2018-Jun-08 07:28N 09°21' W 079°55'0 0.1
2018-Jun-08 06:58N 09°21' W 079°55'0 0.0
2018-Jun-08 06:28N 09°21' W 079°55'0 0.0
2018-Jun-08 05:58N 09°21' W 079°55'0 0.0
2018-Jun-08 05:28N 09°21' W 079°55'0 0.0
2018-Jun-08 04:58N 09°21' W 079°55'0 0.0
2018-Jun-08 04:28N 09°21' W 079°55'0 0.0
2018-Jun-08 03:58N 09°21' W 079°55'0 0.0
2018-Jun-08 03:28N 09°21' W 079°55'0 0.0
2018-Jun-08 02:58N 09°21' W 079°55'0 0.0
2018-Jun-08 02:28N 09°21' W 079°55'0 0.0
2018-Jun-08 01:58N 09°21' W 079°55'0 0.0
2018-Jun-08 01:28N 09°21' W 079°55'0 0.0
2018-Jun-08 00:58N 09°21' W 079°55'0 0.0
2018-Jun-08 00:28N 09°21' W 079°55'0 0.0
2018-Jun-07 23:58N 09°21' W 079°55'0 0.0
2018-Jun-07 23:28N 09°21' W 079°55'0 0.0
2018-Jun-07 22:58N 09°21' W 079°55'0 0.0
2018-Jun-07 22:28N 09°21' W 079°55'0 0.0
2018-Jun-07 21:58N 09°21' W 079°55'0 0.0
2018-Jun-07 21:30N 09°21' W 079°55'0 0.1
2018-Jun-07 21:00N 09°21' W 079°55'3 5.7
2018-Jun-07 20:30N 09°23' W 079°55'4 8.8
2018-Jun-07 20:00N 09°28' W 079°54'  
2018-Jun-02 22:50N 18°01' W 063°33'310.1
2018-Jun-02 22:30N 18°02' W 063°29'510.2
2018-Jun-02 21:59N 18°02' W 063°24'510.1
2018-Jun-02 21:29N 18°02' W 063°19'5 9.8
2018-Jun-02 20:59N 18°02' W 063°13'5 9.6
2018-Jun-02 20:29N 18°01' W 063°08'3 4.8
2018-Jun-02 19:52N 18°02' W 063°05'0 0.2
2018-Jun-02 19:22N 18°02' W 063°05'0 0.0
2018-Jun-02 18:52N 18°02' W 063°05'0 0.0
2018-Jun-02 18:23N 18°02' W 063°05'0 0.0
2018-Jun-02 17:53N 18°02' W 063°05'0 0.0
2018-Jun-02 17:23N 18°02' W 063°05'0 0.0
2018-Jun-02 16:53N 18°02' W 063°05'0 0.0
2018-Jun-02 16:20N 18°02' W 063°05'0 0.0
2018-Jun-02 15:56N 18°02' W 063°05'0 0.0
2018-Jun-02 15:26N 18°02' W 063°05'0 0.0
2018-Jun-02 14:56N 18°02' W 063°05'0 0.0
2018-Jun-02 14:26N 18°02' W 063°05'0 0.0
2018-Jun-02 13:56N 18°02' W 063°05'0 0.0
2018-Jun-02 13:14N 18°02' W 063°05'0 0.0
2018-Jun-02 12:59N 18°02' W 063°05'0 0.0
2018-Jun-02 12:29N 18°02' W 063°05'0 0.0
2018-Jun-02 11:44N 18°02' W 063°05'0 0.0
2018-Jun-02 11:26N 18°02' W 063°05'0 0.0
2018-Jun-02 10:59N 18°02' W 063°05'0 0.0
2018-Jun-02 10:29N 18°02' W 063°05'0 0.0
2018-Jun-02 09:59N 18°02' W 063°05'0 0.0
2018-Jun-02 09:29N 18°02' W 063°05'0 0.0
2018-Jun-02 08:59N 18°02' W 063°05'0 0.0
2018-Jun-02 08:29N 18°02' W 063°05'0 0.0
2018-Jun-02 07:59N 18°02' W 063°05'0 0.0
2018-Jun-02 07:29N 18°02' W 063°05'0 0.0
2018-Jun-02 06:59N 18°02' W 063°05'0 0.0
2018-Jun-02 06:20N 18°02' W 063°05'0 0.0
2018-Jun-02 05:50N 18°02' W 063°05'0 0.0
2018-Jun-02 05:20N 18°02' W 063°05'0 0.0
2018-Jun-02 04:53N 18°02' W 063°05'0 0.0
2018-Jun-02 04:23N 18°02' W 063°05'0 0.0
2018-Jun-02 03:53N 18°02' W 063°05'0 0.0
2018-Jun-02 03:23N 18°02' W 063°05'0 0.0
2018-Jun-02 02:53N 18°02' W 063°05'0 0.0
2018-Jun-02 02:23N 18°02' W 063°05'0 0.0
2018-Jun-02 01:53N 18°02' W 063°05'0 0.0
2018-Jun-02 01:26N 18°02' W 063°05'0 0.0
2018-Jun-02 00:53N 18°02' W 063°05'0 0.0
2018-Jun-02 00:08N 18°02' W 063°05'0 0.0
2018-Jun-01 23:53N 18°02' W 063°05'0 0.0
2018-Jun-01 23:29N 18°02' W 063°05'0 0.0
2018-Jun-01 22:59N 18°02' W 063°05'0 0.0
2018-Jun-01 22:29N 18°02' W 063°05'0 0.0
2018-Jun-01 21:56N 18°02' W 063°05'0 0.0
2018-Jun-01 21:29N 18°02' W 063°05'0 0.0
2018-Jun-01 20:59N 18°02' W 063°05'0 0.0
2018-Jun-01 20:29N 18°02' W 063°05'0 0.0
2018-Jun-01 19:47N 18°02' W 063°05'0 0.0
2018-Jun-01 19:29N 18°02' W 063°05'0 0.0
2018-Jun-01 18:59N 18°02' W 063°05'0 0.0
2018-Jun-01 18:29N 18°02' W 063°05'0 0.0
2018-Jun-01 17:59N 18°02' W 063°05'0 0.0
2018-Jun-01 17:29N 18°02' W 063°05'0 0.0
2018-Jun-01 16:50N 18°02' W 063°05'0 0.0
2018-Jun-01 16:20N 18°02' W 063°05'0 0.0
2018-Jun-01 15:47N 18°02' W 063°05'0 0.0
2018-Jun-01 15:23N 18°02' W 063°05'0 0.0
2018-Jun-01 14:53N 18°02' W 063°05'0 0.0
2018-Jun-01 14:23N 18°02' W 063°05'0 0.0
2018-Jun-01 13:53N 18°02' W 063°05'0 0.0
2018-Jun-01 13:11N 18°02' W 063°05'0 0.0
2018-Jun-01 12:50N 18°02' W 063°05'0 0.0
2018-Jun-01 12:26N 18°02' W 063°05'0 0.0
2018-Jun-01 11:53N 18°02' W 063°05'0 0.0
2018-Jun-01 11:26N 18°02' W 063°05'0 0.0
2018-Jun-01 10:53N 18°02' W 063°05'0 0.0
2018-Jun-01 10:26N 18°02' W 063°05'0 0.0
2018-Jun-01 09:59N 18°02' W 063°05'0 0.0
2018-Jun-01 09:29N 18°02' W 063°05'0 0.0
2018-Jun-01 08:59N 18°02' W 063°05'0 0.0
2018-Jun-01 08:29N 18°02' W 063°05'0 0.0
2018-Jun-01 07:59N 18°02' W 063°05'0 0.0
2018-Jun-01 07:29N 18°02' W 063°05'0 0.0
2018-Jun-01 06:59N 18°02' W 063°05'0 0.0
2018-Jun-01 06:29N 18°02' W 063°05'0 0.0
2018-Jun-01 05:59N 18°02' W 063°05'0 0.0
2018-Jun-01 05:29N 18°02' W 063°05'0 0.0
2018-Jun-01 04:59N 18°02' W 063°05'0 0.0
2018-Jun-01 04:29N 18°02' W 063°05'0 0.0
2018-Jun-01 03:59N 18°02' W 063°05'0 0.0
2018-Jun-01 03:20N 18°02' W 063°05'0 0.0
2018-Jun-01 02:59N 18°02' W 063°05'  

Dump ship's entire track history